Time;durP1;ratioP1;P1;durP2;ratioP2;P2;SDS_P1;SDS_P2;PMS_P1;PMS_P2;Temp;Humidity;BMP_temperature;BMP_pressure;BME280_temperature;BME280_humidity;BME280_pressure;Samples;Min_cycle;Max_cycle;Signal;HPM_P1;HPM_P2
2022/10/29 08:17:07;;;;;;;;;;;;;;;;;;941684;31;20253;-76
2022/10/29 08:17:38;;;;;;;;;;;;;;;;;;943763;27;19907;-77
2022/10/29 08:18:10;;;;;;;;;;;;;;;;;;943696;27;19914;-79
2022/10/29 08:18:45;;;;;;;;;;;;;;;;;;943739;27;19959;-79
2022/10/29 08:19:15;;;;;;;;;;;;;;;;;;943763;27;19919;-79
2022/10/29 08:19:46;;;;;;;;;;;;;;;;;;943838;27;19915;-79
2022/10/29 08:20:17;;;;;;;;;;;;;;;;;;943705;27;19958;-82
2022/10/29 08:20:50;;;;;;;;;;;;;;;;;;943736;27;19968;-79
2022/10/29 08:21:21;;;;;;;;;;;;;;;;;;943933;27;20290;-80
2022/10/29 08:21:51;;;;;;;;;;;;;;;;;;943578;27;19931;-76
2022/10/29 08:22:25;;;;;;;;;;;;;;;;;;943767;27;20003;-78
2022/10/29 08:22:57;;;;;;;;;;;;;;;;;;943669;27;20298;-77
2022/10/29 08:23:30;;;;;;;;;;;;;;;;;;943647;27;20168;-78
2022/10/29 08:24:01;;;;;;;;;;;;;;;;;;943694;27;19907;-76
2022/10/29 08:24:32;;;;;;;;;;;;;;;;;;943647;27;19918;-77
2022/10/29 08:25:05;;;;;;;;;;;;;;;;;;943629;27;19966;-77
2022/10/29 08:25:40;;;;;;;;;;;;;;;;;;943594;27;19907;-78
2022/10/29 08:26:14;;;;;;;;;;;;;;;;;;943665;27;19911;-77
2022/10/29 08:26:44;;;;;;;;;;;;;;;;;;943440;27;19907;-80
2022/10/29 08:27:15;;;;;;;;;;;;;;;;;;943901;27;19907;-79
2022/10/29 08:28:01;;;;;;;;;;;;;;;;;;943713;27;19911;-76
2022/10/29 08:28:32;;;;;;;;;;;;;;;;;;943549;27;19907;-77
2022/10/29 08:29:02;;;;;;;;;;;;;;;;;;943549;27;19912;-79
2022/10/29 08:29:36;;;;;;;;;;;;;;;;;;943326;27;20206;-80
2022/10/29 08:30:10;;;;;;;;;;;;;;;;;;943522;27;19917;-77
2022/10/29 08:30:42;;;;;;;;;;;;;;;;;;943368;27;19911;-77
2022/10/29 08:31:16;;;;;;;;;;;;;;;;;;943483;27;20135;-81
2022/10/29 08:31:46;;;;;;;;;;;;;;;;;;943573;27;19918;-76
2022/10/29 08:32:19;;;;;;;;;;;;;;;;;;943726;27;19923;-77
2022/10/29 08:32:53;;;;;;;;;;;;;;;;;;943660;27;19918;-76
2022/10/29 08:33:23;;;;;;;;;;;;;;;;;;943484;27;19904;-80
2022/10/29 08:33:54;;;;;;;;;;;;;;;;;;943579;27;19918;-77
2022/10/29 08:34:27;;;;;;;;;;;;;;;;;;943679;27;19907;-77
2022/10/29 08:34:58;;;;;;;;;;;;;;;;;;943693;27;19954;-77
2022/10/29 08:35:29;;;;;;;;;;;;;;;;;;943737;27;20289;-82
2022/10/29 08:36:02;;;;;;;;;;;;;;;;;;943699;27;19914;-77
2022/10/29 08:36:33;;;;;;;;;;;;;;;;;;943788;27;19907;-77
2022/10/29 08:37:04;;;;;;;;;;;;;;;;;;943693;27;20247;-77
2022/10/29 08:37:34;;;;;;;;;;;;;;;;;;943710;27;19951;-76
2022/10/29 08:38:08;;;;;;;;;;;;;;;;;;944204;27;19955;-79
2022/10/29 08:38:38;;;;;;;;;;;;;;;;;;944217;27;19904;-80
2022/10/29 08:39:09;;;;;;;;;;;;;;;;;;943906;27;20259;-77
2022/10/29 08:39:42;;;;;;;;;;;;;;;;;;944188;27;20182;-78
2022/10/29 08:40:18;;;;;;;;;;;;;;;;;;944150;27;19907;-79
2022/10/29 08:41:09;;;;;;;;;;;;;;;;;;945031;27;19907;-77
2022/10/29 08:41:46;;;;;;;;;;;;;;;;;;945327;27;19908;-80
2022/10/29 08:42:24;;;;;;;;;;;;;;;;;;945693;27;20498;-78
2022/10/29 08:43:09;;;;;;;;;;;;;;;;;;944271;27;19907;-78
2022/10/29 08:43:55;;;;;;;;;;;;;;;;;;943911;27;19907;-78
2022/10/29 08:44:52;;;;;;;;;;;;;;;;;;943293;27;19912;-77
2022/10/29 08:45:24;;;;;;;;;;;;;;;;;;943990;27;19935;-76
2022/10/29 08:45:55;;;;;;;;;;;;;;;;;;943934;27;19956;-81
2022/10/29 08:46:36;;;;;;;;;;;;;;;;;;943742;27;19915;-80
2022/10/29 08:47:11;;;;;;;;;;;;;;;;;;943944;27;19907;-78
2022/10/29 08:47:48;;;;;;;;;;;;;;;;;;945405;27;20191;-76
2022/10/29 08:48:26;;;;;;;;;;;;;;;;;;943535;27;19911;-76
2022/10/29 08:48:59;;;;;;;;;;;;;;;;;;943502;27;19907;-75
2022/10/29 08:49:33;;;;;;;;;;;;;;;;;;943429;27;19960;-75
2022/10/29 08:50:11;;;;;;;;;;;;;;;;;;943410;27;19907;-75
2022/10/29 08:50:43;;;;;;;;;;;;;;;;;;944468;27;20216;-78
2022/10/29 08:51:16;;;;;;;;;;;;;;;;;;943542;27;19907;-76
2022/10/29 08:51:54;;;;;;;;;;;;;;;;;;943476;27;19907;-76
2022/10/29 08:52:26;;;;;;;;;;;;;;;;;;943505;27;19907;-76
2022/10/29 08:52:57;;;;;;;;;;;;;;;;;;943509;27;19908;-76
2022/10/29 08:53:35;;;;;;;;;;;;;;;;;;943473;27;20269;-76
2022/10/29 08:54:10;;;;;;;;;;;;;;;;;;943430;27;19922;-76
2022/10/29 08:54:44;;;;;;;;;;;;;;;;;;943599;27;19907;-76
2022/10/29 08:55:19;;;;;;;;;;;;;;;;;;943445;27;19916;-76
2022/10/29 08:55:50;;;;;;;;;;;;;;;;;;943462;27;20159;-76
2022/10/29 08:56:22;;;;;;;;;;;;;;;;;;943553;27;19907;-76
2022/10/29 08:56:56;;;;;;;;;;;;;;;;;;943280;27;19907;-77
2022/10/29 08:57:30;;;;;;;;;;;;;;;;;;943414;27;19922;-77
2022/10/29 08:58:12;;;;;;;;;;;;;;;;;;943559;27;19907;-76
2022/10/29 08:58:49;;;;;;;;;;;;;;;;;;943505;27;19907;-76
2022/10/29 08:59:23;;;;;;;;;;;;;;;;;;943415;27;19907;-76
2022/10/29 09:00:00;;;;;;;;;;;;;;;;;;943529;27;19907;-76
2022/10/29 09:00:33;;;;;;;;;;;;;;;;;;943564;27;19907;-77
2022/10/29 09:01:11;;;;;;;;;;;;;;;;;;943328;27;19915;-77
2022/10/29 09:01:42;;;;;;;;;;;;;;;;;;943425;27;20240;-78
2022/10/29 09:02:14;;;;;;;;;;;;;;;;;;943425;27;19923;-76
2022/10/29 09:02:53;;;;;;;;;;;;;;;;;;943574;27;19917;-78
2022/10/29 09:03:26;;;;;;;;;;;;;;;;;;943403;27;19918;-77
2022/10/29 09:03:56;;;;;;;;;;;;;;;;;;943244;27;20144;-76
2022/10/29 09:04:34;;;;;;;;;;;;;;;;;;943391;27;19926;-77
2022/10/29 09:05:05;;;;;;;;;;;;;;;;;;943392;27;19907;-76
2022/10/29 09:05:44;;;;;;;;;;;;;;;;;;943472;27;20222;-76
2022/10/29 09:06:21;;;;;;;;;;;;;;;;;;943545;27;19932;-76
2022/10/29 09:07:01;;;;;;;;;;;;;;;;;;943401;27;19911;-76
2022/10/29 09:07:43;;;;;;;;;;;;;;;;;;943426;27;19908;-76
2022/10/29 09:08:23;;;;;;;;;;;;;;;;;;943437;27;19970;-76
2022/10/29 09:09:03;;;;;;;;;;;;;;;;;;943349;27;19907;-76
2022/10/29 09:09:36;;;;;;;;;;;;;;;;;;943294;27;20321;-76
2022/10/29 09:10:09;;;;;;;;;;;;;;;;;;943493;27;20243;-76
2022/10/29 09:10:46;;;;;;;;;;;;;;;;;;943344;27;19907;-76
2022/10/29 09:11:25;;;;;;;;;;;;;;;;;;943329;27;20148;-77
2022/10/29 09:12:03;;;;;;;;;;;;;;;;;;943422;27;19915;-76
2022/10/29 09:12:45;;;;;;;;;;;;;;;;;;943402;27;19978;-76
2022/10/29 09:13:26;;;;;;;;;;;;;;;;;;943311;27;19908;-76
2022/10/29 09:14:11;;;;;;;;;;;;;;;;;;943431;27;19915;-77
2022/10/29 09:14:50;;;;;;;;;;;;;;;;;;943419;27;19907;-76
2022/10/29 09:15:32;;;;;;;;;;;;;;;;;;943320;27;19967;-76
2022/10/29 09:16:12;;;;;;;;;;;;;;;;;;943388;27;19918;-77
2022/10/29 09:16:47;;;;;;;;;;;;;;;;;;943327;27;20148;-76
2022/10/29 09:17:28;;;;;;;;;;;;;;;;;;943373;27;20402;-77
2022/10/29 09:18:08;;;;;;;;;;;;;;;;;;943404;27;20217;-77
2022/10/29 09:18:48;;;;;;;;;;;;;;;;;;943405;27;19907;-76
2022/10/29 09:19:27;;;;;;;;;;;;;;;;;;943480;27;20220;-77
2022/10/29 09:20:06;;;;;;;;;;;;;;;;;;943332;27;19915;-76
2022/10/29 09:20:44;;;;;;;;;;;;;;;;;;943342;27;19907;-75
2022/10/29 09:21:24;;;;;;;;;;;;;;;;;;943480;27;19937;-76
2022/10/29 09:21:59;;;;;;;;;;;;;;;;;;943337;27;19911;-77
2022/10/29 09:22:39;;;;;;;;;;;;;;;;;;943405;27;19919;-76
2022/10/29 09:23:14;;;;;;;;;;;;;;;;;;943554;27;20216;-77
2022/10/29 09:23:53;;;;;;;;;;;;;;;;;;943398;27;20212;-76
2022/10/29 09:24:27;;;;;;;;;;;;;;;;;;943516;27;19907;-77
2022/10/29 09:25:06;;;;;;;;;;;;;;;;;;943342;27;19915;-76
2022/10/29 09:25:43;;;;;;;;;;;;;;;;;;943443;27;19917;-77
2022/10/29 09:26:15;;;;;;;;;;;;;;;;;;943557;27;19918;-75
2022/10/29 09:26:55;;;;;;;;;;;;;;;;;;943480;27;19915;-77
2022/10/29 09:27:34;;;;;;;;;;;;;;;;;;943452;27;20034;-77
2022/10/29 09:28:12;;;;;;;;;;;;;;;;;;942288;27;19922;-77
2022/10/29 09:28:50;;;;;;;;;;;;;;;;;;941182;27;19927;-77
2022/10/29 09:29:26;;;;;;;;;;;;;;;;;;941063;27;19918;-76
2022/10/29 09:30:01;;;;;;;;;;;;;;;;;;941268;27;19965;-77
2022/10/29 09:30:40;;;;;;;;;;;;;;;;;;941039;27;19908;-75
2022/10/29 09:31:18;;;;;;;;;;;;;;;;;;941085;27;19908;-79
2022/10/29 09:31:51;;;;;;;;;;;;;;;;;;941081;27;19946;-76
2022/10/29 09:32:26;;;;;;;;;;;;;;;;;;941121;27;19915;-76
2022/10/29 09:32:59;;;;;;;;;;;;;;;;;;941146;27;19908;-76
2022/10/29 09:33:37;;;;;;;;;;;;;;;;;;941167;27;19907;-76
2022/10/29 09:34:11;;;;;;;;;;;;;;;;;;941102;27;19907;-77
2022/10/29 09:34:43;;;;;;;;;;;;;;;;;;941168;27;19992;-77
2022/10/29 09:35:17;;;;;;;;;;;;;;;;;;941174;27;19911;-76
2022/10/29 09:35:51;;;;;;;;;;;;;;;;;;941047;27;19907;-76
2022/10/29 09:36:23;;;;;;;;;;;;;;;;;;941037;27;19915;-76
2022/10/29 09:36:57;;;;;;;;;;;;;;;;;;941096;27;19916;-76
2022/10/29 09:37:32;;;;;;;;;;;;;;;;;;941082;27;20251;-76
2022/10/29 09:38:07;;;;;;;;;;;;;;;;;;941101;27;19907;-77
2022/10/29 09:38:44;;;;;;;;;;;;;;;;;;941168;27;19959;-76
2022/10/29 09:39:20;;;;;;;;;;;;;;;;;;941236;27;19918;-76
2022/10/29 09:39:52;;;;;;;;;;;;;;;;;;941005;27;19916;-76
2022/10/29 09:40:31;;;;;;;;;;;;;;;;;;941026;27;19992;-76
2022/10/29 09:41:02;;;;;;;;;;;;;;;;;;941053;27;20182;-76
2022/10/29 09:41:34;;;;;;;;;;;;;;;;;;941267;27;20113;-76
2022/10/29 09:42:11;;;;;;;;;;;;;;;;;;941183;27;19916;-76
2022/10/29 09:42:43;;;;;;;;;;;;;;;;;;941101;27;19919;-76
2022/10/29 09:43:32;;;;;;;;;;;;;;;;;;941128;27;19922;-77
2022/10/29 09:44:06;;;;;;;;;;;;;;;;;;941104;27;19908;-76
2022/10/29 09:44:39;;;;;;;;;;;;;;;;;;941115;27;19930;-76
2022/10/29 09:45:16;;;;;;;;;;;;;;;;;;941059;27;20325;-77
2022/10/29 09:45:49;;;;;;;;;;;;;;;;;;941117;27;19908;-76
2022/10/29 09:46:25;;;;;;;;;;;;;;;;;;941189;27;19907;-77
2022/10/29 09:47:05;;;;;;;;;;;;;;;;;;941172;27;20251;-76
2022/10/29 09:47:41;;;;;;;;;;;;;;;;;;941144;27;19915;-76
2022/10/29 09:48:19;;;;;;;;;;;;;;;;;;941071;27;19922;-76
2022/10/29 09:48:56;;;;;;;;;;;;;;;;;;941035;27;19907;-77
2022/10/29 09:49:41;;;;;;;;;;;;;;;;;;941131;27;19919;-77
2022/10/29 09:50:15;;;;;;;;;;;;;;;;;;941021;27;19918;-77
2022/10/29 09:50:52;;;;;;;;;;;;;;;;;;941047;27;19926;-76
2022/10/29 09:51:32;;;;;;;;;;;;;;;;;;941140;27;20045;-78
2022/10/29 09:52:05;;;;;;;;;;;;;;;;;;941079;27;19907;-76
2022/10/29 09:52:38;;;;;;;;;;;;;;;;;;941154;27;19919;-75
2022/10/29 09:53:12;;;;;;;;;;;;;;;;;;941147;27;19915;-77
2022/10/29 09:53:42;;;;;;;;;;;;;;;;;;941065;27;19918;-77
2022/10/29 09:54:16;;;;;;;;;;;;;;;;;;941079;27;19907;-76
2022/10/29 09:54:48;;;;;;;;;;;;;;;;;;941068;27;19908;-77
2022/10/29 09:55:25;;;;;;;;;;;;;;;;;;941052;27;19907;-76
2022/10/29 09:55:55;;;;;;;;;;;;;;;;;;941157;27;19918;-76
2022/10/29 09:56:26;;;;;;;;;;;;;;;;;;941109;27;19911;-75
2022/10/29 09:57:00;;;;;;;;;;;;;;;;;;941171;27;20212;-76
2022/10/29 09:57:33;;;;;;;;;;;;;;;;;;940933;27;20456;-76
2022/10/29 09:58:05;;;;;;;;;;;;;;;;;;941160;27;19915;-77
2022/10/29 09:58:40;;;;;;;;;;;;;;;;;;941077;27;19911;-77
2022/10/29 09:59:15;;;;;;;;;;;;;;;;;;941017;27;19907;-76
2022/10/29 09:59:47;;;;;;;;;;;;;;;;;;941163;27;19907;-76
2022/10/29 10:00:22;;;;;;;;;;;;;;;;;;941008;27;19926;-77
2022/10/29 10:00:53;;;;;;;;;;;;;;;;;;941060;27;19912;-76
2022/10/29 10:01:24;;;;;;;;;;;;;;;;;;941096;27;20144;-76
2022/10/29 10:01:58;;;;;;;;;;;;;;;;;;941124;27;19907;-76
2022/10/29 10:02:31;;;;;;;;;;;;;;;;;;941041;27;20140;-76
2022/10/29 10:03:03;;;;;;;;;;;;;;;;;;941169;27;19907;-77
2022/10/29 10:03:40;;;;;;;;;;;;;;;;;;941161;27;19925;-76
2022/10/29 10:04:18;;;;;;;;;;;;;;;;;;941137;27;19917;-76
2022/10/29 10:04:50;;;;;;;;;;;;;;;;;;941181;27;20164;-75
2022/10/29 10:05:26;;;;;;;;;;;;;;;;;;941048;27;19922;-77
2022/10/29 10:06:01;;;;;;;;;;;;;;;;;;941184;27;19954;-76
2022/10/29 10:06:52;;;;;;;;;;;;;;;;;;941064;27;19915;-76
2022/10/29 10:07:25;;;;;;;;;;;;;;;;;;940867;27;20213;-76
2022/10/29 10:08:13;;;;;;;;;;;;;;;;;;941165;27;20300;-77
2022/10/29 10:09:04;;;;;;;;;;;;;;;;;;941000;27;19908;-76
2022/10/29 10:09:49;;;;;;;;;;;;;;;;;;941017;27;19919;-76
2022/10/29 10:10:23;;;;;;;;;;;;;;;;;;940967;27;20213;-76
2022/10/29 10:10:55;;;;;;;;;;;;;;;;;;941039;27;19918;-77
2022/10/29 10:11:28;;;;;;;;;;;;;;;;;;941006;27;19964;-76
2022/10/29 10:12:02;;;;;;;;;;;;;;;;;;941128;27;19958;-77
2022/10/29 10:12:43;;;;;;;;;;;;;;;;;;941097;27;20217;-76
2022/10/29 10:13:15;;;;;;;;;;;;;;;;;;941054;27;19908;-76
2022/10/29 10:13:53;;;;;;;;;;;;;;;;;;941045;27;19927;-76
2022/10/29 10:14:25;;;;;;;;;;;;;;;;;;941065;27;19907;-77
2022/10/29 10:15:04;;;;;;;;;;;;;;;;;;941150;27;19907;-77
2022/10/29 10:15:38;;;;;;;;;;;;;;;;;;940978;27;19918;-77
2022/10/29 10:16:08;;;;;;;;;;;;;;;;;;941065;27;19907;-76
2022/10/29 10:16:40;;;;;;;;;;;;;;;;;;941055;27;20217;-77
2022/10/29 10:17:13;;;;;;;;;;;;;;;;;;941085;27;20213;-76
2022/10/29 10:18:04;;;;;;;;;;;;;;;;;;941026;27;19907;-77
2022/10/29 10:18:41;;;;;;;;;;;;;;;;;;940517;27;19919;-76
2022/10/29 10:19:25;;;;;;;;;;;;;;;;;;941015;27;20121;-76
2022/10/29 10:19:55;;;;;;;;;;;;;;;;;;940983;27;19955;-77
2022/10/29 10:20:33;;;;;;;;;;;;;;;;;;940905;27;19907;-76
2022/10/29 10:21:05;;;;;;;;;;;;;;;;;;941058;27;19911;-77
2022/10/29 10:21:39;;;;;;;;;;;;;;;;;;941034;27;19907;-77
2022/10/29 10:22:17;;;;;;;;;;;;;;;;;;941015;27;19908;-76
2022/10/29 10:22:47;;;;;;;;;;;;;;;;;;940992;27;20337;-77
2022/10/29 10:23:25;;;;;;;;;;;;;;;;;;941065;27;19908;-76
2022/10/29 10:23:57;;;;;;;;;;;;;;;;;;940995;27;20254;-76
2022/10/29 10:24:28;;;;;;;;;;;;;;;;;;941112;27;19919;-76
2022/10/29 10:25:02;;;;;;;;;;;;;;;;;;941025;27;19907;-77
2022/10/29 10:25:34;;;;;;;;;;;;;;;;;;940984;27;20151;-77
2022/10/29 10:26:05;;;;;;;;;;;;;;;;;;940958;27;19907;-76
2022/10/29 10:26:42;;;;;;;;;;;;;;;;;;940990;27;19963;-77
2022/10/29 10:27:28;;;;;;;;;;;;;;;;;;941127;27;19919;-76
2022/10/29 10:28:02;;;;;;;;;;;;;;;;;;941032;27;19911;-75
2022/10/29 10:28:36;;;;;;;;;;;;;;;;;;941080;27;19965;-77
2022/10/29 10:29:10;;;;;;;;;;;;;;;;;;940964;27;19907;-75
2022/10/29 10:29:41;;;;;;;;;;;;;;;;;;940898;27;20159;-76
2022/10/29 10:30:19;;;;;;;;;;;;;;;;;;941119;27;19959;-75
2022/10/29 10:31:05;;;;;;;;;;;;;;;;;;940936;27;20221;-74
2022/10/29 10:31:35;;;;;;;;;;;;;;;;;;941236;27;19912;-73
2022/10/29 10:32:12;;;;;;;;;;;;;;;;;;941097;27;20144;-74
2022/10/29 10:32:43;;;;;;;;;;;;;;;;;;940974;27;20156;-73
2022/10/29 10:33:24;;;;;;;;;;;;;;;;;;941045;27;19918;-73
2022/10/29 10:33:57;;;;;;;;;;;;;;;;;;940996;27;19907;-74
2022/10/29 10:34:37;;;;;;;;;;;;;;;;;;940958;27;19911;-74
2022/10/29 10:35:26;;;;;;;;;;;;;;;;;;941026;27;19907;-74
2022/10/29 10:36:00;;;;;;;;;;;;;;;;;;940993;27;19907;-75
2022/10/29 10:36:31;;;;;;;;;;;;;;;;;;941139;27;19915;-75
2022/10/29 10:37:05;;;;;;;;;;;;;;;;;;940945;27;20362;-74
2022/10/29 10:37:36;;;;;;;;;;;;;;;;;;941026;27;19908;-73
2022/10/29 10:38:07;;;;;;;;;;;;;;;;;;940956;27;19911;-74
2022/10/29 10:38:41;;;;;;;;;;;;;;;;;;941010;27;19907;-74
2022/10/29 10:39:18;;;;;;;;;;;;;;;;;;941072;27;19907;-74
2022/10/29 10:39:54;;;;;;;;;;;;;;;;;;940624;27;19963;-74
2022/10/29 10:40:24;;;;;;;;;;;;;;;;;;940454;27;19907;-74
2022/10/29 10:40:56;;;;;;;;;;;;;;;;;;941194;27;19907;-74
2022/10/29 10:41:31;;;;;;;;;;;;;;;;;;941019;27;20220;-74
2022/10/29 10:42:03;;;;;;;;;;;;;;;;;;940964;27;19907;-74
2022/10/29 10:42:38;;;;;;;;;;;;;;;;;;940972;27;19907;-74
2022/10/29 10:43:20;;;;;;;;;;;;;;;;;;941033;27;19917;-74
2022/10/29 10:43:51;;;;;;;;;;;;;;;;;;941040;27;19918;-73
2022/10/29 10:44:22;;;;;;;;;;;;;;;;;;940903;27;19934;-74
2022/10/29 10:44:58;;;;;;;;;;;;;;;;;;941046;27;20239;-74
2022/10/29 10:45:33;;;;;;;;;;;;;;;;;;941100;27;19907;-74
2022/10/29 10:46:05;;;;;;;;;;;;;;;;;;941108;27;19991;-74
2022/10/29 10:46:40;;;;;;;;;;;;;;;;;;941021;27;19915;-75
2022/10/29 10:47:11;;;;;;;;;;;;;;;;;;940866;27;19919;-74
2022/10/29 10:47:44;;;;;;;;;;;;;;;;;;941056;27;19907;-75
2022/10/29 10:48:18;;;;;;;;;;;;;;;;;;940952;27;19911;-74
2022/10/29 10:48:56;;;;;;;;;;;;;;;;;;940964;27;19918;-74
2022/10/29 10:49:33;;;;;;;;;;;;;;;;;;940976;27;19921;-74
2022/10/29 10:50:17;;;;;;;;;;;;;;;;;;941065;27;19907;-73
2022/10/29 10:50:51;;;;;;;;;;;;;;;;;;940975;27;19919;-73
2022/10/29 10:51:23;;;;;;;;;;;;;;;;;;940867;27;19954;-73
2022/10/29 10:51:57;;;;;;;;;;;;;;;;;;941121;27;20217;-74
2022/10/29 10:52:30;;;;;;;;;;;;;;;;;;940979;27;19942;-74
2022/10/29 10:53:02;;;;;;;;;;;;;;;;;;941060;27;19907;-73
2022/10/29 10:53:36;;;;;;;;;;;;;;;;;;940960;27;19915;-74
2022/10/29 10:54:25;;;;;;;;;;;;;;;;;;940990;27;19907;-74
2022/10/29 10:55:00;;;;;;;;;;;;;;;;;;940974;27;19907;-75
2022/10/29 10:55:32;;;;;;;;;;;;;;;;;;940922;27;19918;-74
2022/10/29 10:56:03;;;;;;;;;;;;;;;;;;941001;27;19907;-74
2022/10/29 10:56:53;;;;;;;;;;;;;;;;;;940899;27;19907;-74
2022/10/29 10:57:24;;;;;;;;;;;;;;;;;;940970;27;19918;-73
2022/10/29 10:58:02;;;;;;;;;;;;;;;;;;940965;27;19907;-74
2022/10/29 10:58:36;;;;;;;;;;;;;;;;;;941004;27;20217;-72
2022/10/29 10:59:12;;;;;;;;;;;;;;;;;;940988;27;19907;-74
2022/10/29 10:59:46;;;;;;;;;;;;;;;;;;940958;27;19907;-74
2022/10/29 11:00:18;;;;;;;;;;;;;;;;;;940905;27;20023;-74
2022/10/29 11:00:55;;;;;;;;;;;;;;;;;;940968;27;20209;-75
2022/10/29 11:01:29;;;;;;;;;;;;;;;;;;941138;27;19908;-73
2022/10/29 11:02:00;;;;;;;;;;;;;;;;;;941163;27;20262;-74
2022/10/29 11:02:41;;;;;;;;;;;;;;;;;;941111;27;19953;-74
2022/10/29 11:03:15;;;;;;;;;;;;;;;;;;941007;27;19918;-75
2022/10/29 11:03:47;;;;;;;;;;;;;;;;;;941046;27;20152;-73
2022/10/29 11:04:22;;;;;;;;;;;;;;;;;;940917;27;19919;-74
2022/10/29 11:04:55;;;;;;;;;;;;;;;;;;941252;27;19908;-73
2022/10/29 11:05:31;;;;;;;;;;;;;;;;;;941402;27;19908;-74
2022/10/29 11:06:08;;;;;;;;;;;;;;;;;;941225;27;19915;-73
2022/10/29 11:06:39;;;;;;;;;;;;;;;;;;940849;27;19918;-73
2022/10/29 11:07:12;;;;;;;;;;;;;;;;;;940995;27;19911;-77
2022/10/29 11:07:49;;;;;;;;;;;;;;;;;;940864;27;20400;-74
2022/10/29 11:08:23;;;;;;;;;;;;;;;;;;940810;27;19907;-74
2022/10/29 11:08:57;;;;;;;;;;;;;;;;;;941018;27;19983;-73
2022/10/29 11:09:35;;;;;;;;;;;;;;;;;;940980;27;19907;-73
2022/10/29 11:10:09;;;;;;;;;;;;;;;;;;940882;27;19954;-74
2022/10/29 11:10:43;;;;;;;;;;;;;;;;;;940816;27;19971;-74
2022/10/29 11:11:19;;;;;;;;;;;;;;;;;;940894;27;19919;-75
2022/10/29 11:11:54;;;;;;;;;;;;;;;;;;940843;27;19969;-73
2022/10/29 11:12:31;;;;;;;;;;;;;;;;;;940870;27;19959;-74
2022/10/29 11:13:05;;;;;;;;;;;;;;;;;;940959;27;19918;-73
2022/10/29 11:13:38;;;;;;;;;;;;;;;;;;940918;27;19958;-75
2022/10/29 11:14:15;;;;;;;;;;;;;;;;;;940978;27;19960;-74
2022/10/29 11:14:48;;;;;;;;;;;;;;;;;;941046;27;19990;-75
2022/10/29 11:15:27;;;;;;;;;;;;;;;;;;940996;27;19959;-74
2022/10/29 11:16:03;;;;;;;;;;;;;;;;;;940966;27;19918;-73
2022/10/29 11:16:37;;;;;;;;;;;;;;;;;;940762;27;19919;-75
2022/10/29 11:17:21;;;;;;;;;;;;;;;;;;940981;27;19924;-75
2022/10/29 11:17:53;;;;;;;;;;;;;;;;;;940972;27;19948;-79
2022/10/29 11:18:31;;;;;;;;;;;;;;;;;;940915;27;20230;-74
2022/10/29 11:19:04;;;;;;;;;;;;;;;;;;940948;27;19907;-75
2022/10/29 11:19:38;;;;;;;;;;;;;;;;;;940926;27;20288;-74
2022/10/29 11:20:16;;;;;;;;;;;;;;;;;;940862;27;19907;-75
2022/10/29 11:20:54;;;;;;;;;;;;;;;;;;940917;27;19918;-75
2022/10/29 11:21:28;;;;;;;;;;;;;;;;;;940939;27;19983;-74
2022/10/29 11:22:05;;;;;;;;;;;;;;;;;;940922;27;20151;-74
2022/10/29 11:22:43;;;;;;;;;;;;;;;;;;940854;27;19907;-73
2022/10/29 11:23:25;;;;;;;;;;;;;;;;;;940887;27;19918;-73
2022/10/29 11:24:00;;;;;;;;;;;;;;;;;;940824;27;20143;-74
2022/10/29 11:24:38;;;;;;;;;;;;;;;;;;940904;27;19907;-75
2022/10/29 11:25:17;;;;;;;;;;;;;;;;;;940928;27;20177;-74
2022/10/29 11:25:51;;;;;;;;;;;;;;;;;;940870;27;19918;-74
2022/10/29 11:26:27;;;;;;;;;;;;;;;;;;940838;27;19908;-74
2022/10/29 11:27:04;;;;;;;;;;;;;;;;;;940858;27;20216;-74
2022/10/29 11:27:40;;;;;;;;;;;;;;;;;;941008;27;20205;-74
2022/10/29 11:28:18;;;;;;;;;;;;;;;;;;940853;27;20284;-75
2022/10/29 11:28:53;;;;;;;;;;;;;;;;;;940912;27;19922;-74
2022/10/29 11:29:28;;;;;;;;;;;;;;;;;;940894;27;19907;-74
2022/10/29 11:30:02;;;;;;;;;;;;;;;;;;940927;27;19964;-74
2022/10/29 11:30:40;;;;;;;;;;;;;;;;;;940730;27;19921;-74
2022/10/29 11:31:16;;;;;;;;;;;;;;;;;;940928;27;19919;-75
2022/10/29 11:31:52;;;;;;;;;;;;;;;;;;940960;27;19926;-75
2022/10/29 11:32:29;;;;;;;;;;;;;;;;;;940925;27;19916;-75
2022/10/29 11:33:04;;;;;;;;;;;;;;;;;;940855;27;19919;-73
2022/10/29 11:33:43;;;;;;;;;;;;;;;;;;941105;27;20178;-74
2022/10/29 11:34:16;;;;;;;;;;;;;;;;;;940907;27;19922;-74
2022/10/29 11:34:50;;;;;;;;;;;;;;;;;;940995;27;20008;-74
2022/10/29 11:35:25;;;;;;;;;;;;;;;;;;941011;27;20418;-74
2022/10/29 11:36:02;;;;;;;;;;;;;;;;;;940959;27;20225;-74
2022/10/29 11:36:37;;;;;;;;;;;;;;;;;;940955;27;19907;-74
2022/10/29 11:37:16;;;;;;;;;;;;;;;;;;940849;27;20016;-73
2022/10/29 11:37:51;;;;;;;;;;;;;;;;;;941016;27;19907;-75
2022/10/29 11:38:24;;;;;;;;;;;;;;;;;;940909;27;20208;-74
2022/10/29 11:39:01;;;;;;;;;;;;;;;;;;940812;27;19915;-75
2022/10/29 11:39:37;;;;;;;;;;;;;;;;;;940982;27;20239;-74
2022/10/29 11:40:12;;;;;;;;;;;;;;;;;;940950;27;20208;-74
2022/10/29 11:40:49;;;;;;;;;;;;;;;;;;940906;27;19919;-74
2022/10/29 11:41:24;;;;;;;;;;;;;;;;;;940873;27;19907;-73
2022/10/29 11:41:57;;;;;;;;;;;;;;;;;;940918;27;20013;-73
2022/10/29 11:42:30;;;;;;;;;;;;;;;;;;940872;27;19912;-74
2022/10/29 11:43:02;;;;;;;;;;;;;;;;;;941018;27;20147;-74
2022/10/29 11:43:36;;;;;;;;;;;;;;;;;;940870;27;19911;-74
2022/10/29 11:44:09;;;;;;;;;;;;;;;;;;940872;27;19907;-73
2022/10/29 11:44:40;;;;;;;;;;;;;;;;;;940954;27;19934;-74
2022/10/29 11:45:15;;;;;;;;;;;;;;;;;;940867;27;20391;-74
2022/10/29 11:45:53;;;;;;;;;;;;;;;;;;940820;27;19908;-74
2022/10/29 11:46:31;;;;;;;;;;;;;;;;;;940861;27;19915;-75
2022/10/29 11:47:10;;;;;;;;;;;;;;;;;;940910;27;19918;-73
2022/10/29 11:47:51;;;;;;;;;;;;;;;;;;940864;27;19907;-75
2022/10/29 11:48:28;;;;;;;;;;;;;;;;;;940835;27;19961;-74
2022/10/29 11:49:03;;;;;;;;;;;;;;;;;;940808;27;19911;-74
2022/10/29 11:49:44;;;;;;;;;;;;;;;;;;940866;27;19908;-73
2022/10/29 11:50:22;;;;;;;;;;;;;;;;;;940878;27;19921;-74
2022/10/29 11:50:58;;;;;;;;;;;;;;;;;;940913;27;19954;-75
2022/10/29 11:51:39;;;;;;;;;;;;;;;;;;940626;27;20270;-74
2022/10/29 11:52:11;;;;;;;;;;;;;;;;;;940874;27;19914;-75
2022/10/29 11:52:45;;;;;;;;;;;;;;;;;;940806;27;19926;-74
2022/10/29 11:53:25;;;;;;;;;;;;;;;;;;940882;27;19922;-76
2022/10/29 11:53:58;;;;;;;;;;;;;;;;;;940944;27;19920;-73
2022/10/29 11:54:37;;;;;;;;;;;;;;;;;;940903;27;20261;-80
2022/10/29 11:55:21;;;;;;;;;;;;;;;;;;940879;27;19907;-74
2022/10/29 11:55:59;;;;;;;;;;;;;;;;;;940787;27;19967;-74
2022/10/29 11:56:42;;;;;;;;;;;;;;;;;;940827;27;19963;-74
2022/10/29 11:57:15;;;;;;;;;;;;;;;;;;940743;27;20384;-74
2022/10/29 11:57:53;;;;;;;;;;;;;;;;;;940811;27;20182;-75
2022/10/29 11:58:30;;;;;;;;;;;;;;;;;;940642;27;19914;-74
2022/10/29 11:59:04;;;;;;;;;;;;;;;;;;940787;27;19920;-74
2022/10/29 11:59:44;;;;;;;;;;;;;;;;;;940858;27;19916;-74
2022/10/29 12:00:17;;;;;;;;;;;;;;;;;;940780;27;19907;-75
2022/10/29 12:00:54;;;;;;;;;;;;;;;;;;940840;27;19964;-74
2022/10/29 12:01:33;;;;;;;;;;;;;;;;;;940838;27;19916;-74
2022/10/29 12:02:09;;;;;;;;;;;;;;;;;;940763;27;19923;-74
2022/10/29 12:02:54;;;;;;;;;;;;;;;;;;940796;27;19957;-73
2022/10/29 12:03:40;;;;;;;;;;;;;;;;;;940914;27;19915;-74
2022/10/29 12:04:22;;;;;;;;;;;;;;;;;;940824;27;19907;-74
2022/10/29 12:05:00;;;;;;;;;;;;;;;;;;940762;27;20285;-74
2022/10/29 12:05:37;;;;;;;;;;;;;;;;;;940768;27;20216;-74
2022/10/29 12:06:12;;;;;;;;;;;;;;;;;;940823;27;20212;-74
2022/10/29 12:06:54;;;;;;;;;;;;;;;;;;940842;27;19923;-75
2022/10/29 12:07:33;;;;;;;;;;;;;;;;;;940717;27;20163;-75
2022/10/29 12:08:22;;;;;;;;;;;;;;;;;;940732;27;19916;-74
2022/10/29 12:09:01;;;;;;;;;;;;;;;;;;940747;27;20372;-74
2022/10/29 12:09:44;;;;;;;;;;;;;;;;;;940744;27;19984;-75
2022/10/29 12:10:22;;;;;;;;;;;;;;;;;;940887;27;19919;-75
2022/10/29 12:10:57;;;;;;;;;;;;;;;;;;940855;27;19911;-74
2022/10/29 12:11:35;;;;;;;;;;;;;;;;;;940798;27;19959;-78
2022/10/29 12:12:09;;;;;;;;;;;;;;;;;;940741;27;19907;-74
2022/10/29 12:12:44;;;;;;;;;;;;;;;;;;940828;27;19918;-74
2022/10/29 12:13:24;;;;;;;;;;;;;;;;;;940879;27;19921;-74
2022/10/29 12:13:59;;;;;;;;;;;;;;;;;;940810;27;19907;-74
2022/10/29 12:14:37;;;;;;;;;;;;;;;;;;940640;27;19907;-74
2022/10/29 12:15:12;;;;;;;;;;;;;;;;;;940722;27;19919;-73
2022/10/29 12:15:50;;;;;;;;;;;;;;;;;;940601;27;19961;-74
2022/10/29 12:16:30;;;;;;;;;;;;;;;;;;940823;27;20237;-74
2022/10/29 12:17:05;;;;;;;;;;;;;;;;;;940708;27;19950;-74
2022/10/29 12:17:43;;;;;;;;;;;;;;;;;;940722;27;19915;-74
2022/10/29 12:18:19;;;;;;;;;;;;;;;;;;940746;27;19908;-74
2022/10/29 12:18:51;;;;;;;;;;;;;;;;;;940653;27;19908;-74
2022/10/29 12:19:31;;;;;;;;;;;;;;;;;;940776;27;19947;-74
2022/10/29 12:20:09;;;;;;;;;;;;;;;;;;940720;27;19919;-74
2022/10/29 12:20:45;;;;;;;;;;;;;;;;;;940771;27;19995;-74
2022/10/29 12:21:23;;;;;;;;;;;;;;;;;;940775;27;19915;-74
2022/10/29 12:22:05;;;;;;;;;;;;;;;;;;940824;27;19907;-75
2022/10/29 12:22:40;;;;;;;;;;;;;;;;;;940762;27;20140;-74
2022/10/29 12:23:23;;;;;;;;;;;;;;;;;;940919;27;19907;-74
2022/10/29 12:24:01;;;;;;;;;;;;;;;;;;940912;27;19961;-74
2022/10/29 12:24:45;;;;;;;;;;;;;;;;;;940675;27;19903;-74
2022/10/29 12:25:28;;;;;;;;;;;;;;;;;;940671;27;20250;-74
2022/10/29 12:26:07;;;;;;;;;;;;;;;;;;940760;27;19922;-74